Terminal Aerodrome Forecast
Issued by NWS

Home | Current Version | Previous Version | Graphics & Text | Print | Product List | Glossary On
Versions: 1 2 3 4 5 6 7 8 9 10 11 12 13 14 15 16 17 18 19
000
FTUS43 KIWX 211120
TAFSBN
TAF
KSBN 211120Z 2112/2212 17004KT P6SM BKN150
     FM211600 23006KT P6SM BKN200
     FM211800 24008KT P6SM VCTS SCT040 BKN100CB
     FM212300 21007KT P6SM BKN250
     FM220300 19007KT P6SM VCTS BKN100CB
     FM220600 21009KT P6SM SHRA VCTS SCT045 BKN090CB=

USA.gov is the U.S. government's official web portal to all federal, state and local government web resources and services.